Time;durP1;ratioP1;P1;durP2;ratioP2;P2;SDS_P1;SDS_P2;PMS_P1;PMS_P2;Temp;Humidity;BMP_temperature;BMP_pressure;BME280_temperature;BME280_humidity;BME280_pressure;Samples;Min_cycle;Max_cycle;Signal;HPM_P1;HPM_P2
2023/04/01 00:00:53;;;;;;;;;;;;;;;10.33;65.97;98462.44;1087069;54;19942;-79
2023/04/01 00:01:58;;;;;;;;;;;;;;;10.37;65.23;98458.44;1087294;54;19938;-79
2023/04/01 00:03:00;;;;;;;;;;;;;;;10.50;66.30;98456.97;1088813;46;19943;-78
2023/04/01 00:04:04;;;;;;;;;;;;;;;10.52;65.45;98452.25;1087083;54;19950;-78
2023/04/01 00:05:07;;;;;;;;;;;;;;;10.48;64.90;98453.66;1087181;54;19942;-78
2023/04/01 00:06:12;;;;;;;;;;;;;;;10.45;64.48;98453.00;1086986;54;19988;-79
2023/04/01 00:07:13;;;;;;;;;;;;;;;10.50;64.88;98456.97;1087191;54;19943;-78
2023/04/01 00:08:18;;;;;;;;;;;;;;;10.52;64.82;98453.13;1088211;39;20719;-79
2023/04/01 00:09:22;;;;;;;;;;;;;;;10.51;64.58;98448.78;1086888;54;19958;-79
2023/04/01 00:10:28;;;;;;;;;;;;;;;10.56;65.01;98456.25;1087146;54;19946;-78
2023/04/01 00:11:32;;;;;;;;;;;;;;;10.58;64.51;98459.56;1087391;54;19965;-78
2023/04/01 00:12:33;;;;;;;;;;;;;;;10.47;64.37;98447.47;1087387;54;19939;-79
2023/04/01 00:13:37;;;;;;;;;;;;;;;10.48;64.32;98449.13;1087692;46;19989;-79
2023/04/01 00:16:08;;;;;;;;;;;;;;;10.53;63.82;98448.59;1086928;54;19951;-79
2023/04/01 00:17:21;;;;;;;;;;;;;;;10.51;63.70;98454.13;1086956;54;19996;-77
2023/04/01 00:18:24;;;;;;;;;;;;;;;10.49;63.43;98453.47;1087032;54;19943;-79
2023/04/01 00:20:55;;;;;;;;;;;;;;;10.52;63.21;98452.25;1087621;54;19935;-79
2023/04/01 00:21:59;;;;;;;;;;;;;;;10.52;63.08;98445.09;1087714;54;19950;-80
2023/04/01 00:23:04;;;;;;;;;;;;;;;10.50;62.79;98447.13;1087883;46;19938;-80
2023/04/01 00:24:09;;;;;;;;;;;;;;;10.55;62.88;98444.72;1088093;46;19943;-79
2023/04/01 00:25:10;;;;;;;;;;;;;;;10.61;62.93;98443.16;1087804;54;19949;-79
2023/04/01 00:26:20;;;;;;;;;;;;;;;10.57;62.80;98440.00;1087703;54;19950;-78
2023/04/01 00:27:21;;;;;;;;;;;;;;;10.57;62.54;98444.53;1087535;54;19942;-78
2023/04/01 00:28:25;;;;;;;;;;;;;;;10.58;62.73;98448.88;1087881;54;19942;-78
2023/04/01 00:29:30;;;;;;;;;;;;;;;10.60;62.62;98446.81;1088202;46;20007;-79
2023/04/01 00:30:34;;;;;;;;;;;;;;;10.61;62.83;98448.50;1088131;46;19950;-79
2023/04/01 00:31:36;;;;;;;;;;;;;;;10.69;62.83;98452.94;1088287;46;19946;-78
2023/04/01 00:32:39;;;;;;;;;;;;;;;10.72;62.84;98444.53;1088035;54;20017;-78
2023/04/01 00:33:41;;;;;;;;;;;;;;;10.60;62.79;98442.34;1087863;54;19939;-78
2023/04/01 00:34:45;;;;;;;;;;;;;;;10.58;62.79;98449.69;1088026;54;19950;-78
2023/04/01 00:35:47;;;;;;;;;;;;;;;10.55;62.72;98447.38;1087850;54;19973;-79
2023/04/01 00:36:52;;;;;;;;;;;;;;;10.54;62.98;98451.06;1088283;46;19958;-78
2023/04/01 00:37:53;;;;;;;;;;;;;;;10.56;63.04;98451.72;1088055;54;19965;-78
2023/04/01 00:38:56;;;;;;;;;;;;;;;10.57;62.90;98452.56;1089875;46;19954;-79
2023/04/01 00:39:58;;;;;;;;;;;;;;;10.59;63.31;98450.50;1088085;54;19942;-78
2023/04/01 00:41:02;;;;;;;;;;;;;;;10.57;62.89;98447.22;1087972;54;19942;-79
2023/04/01 00:42:07;;;;;;;;;;;;;;;10.58;62.76;98446.22;1088642;46;19994;-78
2023/04/01 00:43:13;;;;;;;;;;;;;;;10.59;62.84;98455.84;1088152;54;19939;-79
2023/04/01 00:44:17;;;;;;;;;;;;;;;10.59;63.34;98455.84;1088162;54;19943;-78
2023/04/01 00:45:30;;;;;;;;;;;;;;;10.59;63.01;98456.69;1088059;54;19942;-79
2023/04/01 00:46:31;;;;;;;;;;;;;;;10.61;62.94;98454.69;1088425;46;19934;-78
2023/04/01 00:47:35;;;;;;;;;;;;;;;10.53;63.56;98446.72;1097800;39;20273;-80
2023/04/01 00:48:39;;;;;;;;;;;;;;;10.50;63.15;98456.97;1090457;46;19947;-79
2023/04/01 00:49:45;;;;;;;;;;;;;;;10.54;63.37;98455.59;1088050;54;19938;-79
2023/04/01 00:50:49;;;;;;;;;;;;;;;10.50;63.04;98456.97;1088019;54;19939;-80
2023/04/01 00:52:03;;;;;;;;;;;;;;;10.52;63.14;98454.94;1088028;54;19939;-79
2023/04/01 00:53:05;;;;;;;;;;;;;;;10.47;63.19;98458.16;1088362;46;19951;-79
2023/04/01 00:54:11;;;;;;;;;;;;;;;10.49;63.47;98457.97;1088928;46;19939;-78
2023/04/01 00:55:14;;;;;;;;;;;;;;;10.48;63.07;98445.66;1087871;54;19949;-79
2023/04/01 00:56:20;;;;;;;;;;;;;;;10.48;63.06;98456.34;1088091;54;19994;-79
2023/04/01 00:57:28;;;;;;;;;;;;;;;10.45;63.14;98450.34;1089927;46;19965;-78
2023/04/01 00:58:34;;;;;;;;;;;;;;;10.44;63.70;98448.66;1088114;54;19967;-79
2023/04/01 00:59:37;;;;;;;;;;;;;;;10.47;62.61;98443.97;1088013;54;19938;-79
2023/04/01 01:00:43;;;;;;;;;;;;;;;10.53;62.83;98445.91;1087966;54;19957;-78
2023/04/01 01:01:44;;;;;;;;;;;;;;;10.56;63.08;98440.22;1087374;54;19941;-79
2023/04/01 01:02:52;;;;;;;;;;;;;;;10.48;63.04;98443.78;1087499;54;19938;-79
2023/04/01 01:03:54;;;;;;;;;;;;;;;10.53;63.23;98444.06;1087997;54;19943;-78
2023/04/01 01:04:59;;;;;;;;;;;;;;;10.54;63.21;98448.38;1087877;54;20018;-79
2023/04/01 01:06:08;;;;;;;;;;;;;;;10.48;62.99;98448.31;1087943;54;20011;-79
2023/04/01 01:07:26;;;;;;;;;;;;;;;10.49;63.43;98447.28;1088141;54;19943;-79
2023/04/01 01:08:39;;;;;;;;;;;;;;;10.44;63.35;98438.00;1087981;54;19943;-80
2023/04/01 01:09:49;;;;;;;;;;;;;;;10.48;63.27;98445.66;1087925;54;20018;-79
2023/04/01 01:10:50;;;;;;;;;;;;;;;10.50;63.16;98443.59;1087986;54;19961;-80
2023/04/01 01:11:57;;;;;;;;;;;;;;;10.50;63.66;98440.94;1088019;54;19943;-80
2023/04/01 01:13:11;;;;;;;;;;;;;;;10.47;63.58;98447.47;1087922;54;19946;-78
2023/04/01 01:14:27;;;;;;;;;;;;;;;10.43;63.52;98439.00;1088416;46;19969;-79
2023/04/01 01:15:30;;;;;;;;;;;;;;;10.41;63.54;98440.19;1087803;54;19943;-79
2023/04/01 01:16:37;;;;;;;;;;;;;;;10.45;63.69;98436.13;1087784;54;19942;-80
2023/04/01 01:17:48;;;;;;;;;;;;;;;10.42;63.94;98444.53;1087961;54;19943;-78
2023/04/01 01:18:56;;;;;;;;;;;;;;;10.46;63.71;98440.47;1087915;54;19949;-79
2023/04/01 01:20:11;;;;;;;;;;;;;;;10.45;63.63;98428.13;1089555;46;19943;-79
2023/04/01 01:21:35;;;;;;;;;;;;;;;10.45;63.25;98441.47;1088134;54;19964;-79
2023/04/01 01:22:50;;;;;;;;;;;;;;;10.44;63.30;98435.31;1090917;46;19939;-79
2023/04/01 01:24:06;;;;;;;;;;;;;;;10.49;63.30;98433.91;1087836;54;19949;-79
2023/04/01 01:25:13;;;;;;;;;;;;;;;10.54;63.03;98443.03;1089547;46;19973;-79
2023/04/01 01:26:28;;;;;;;;;;;;;;;10.48;62.81;98426.94;1087935;54;20022;-78
2023/04/01 01:27:29;;;;;;;;;;;;;;;10.47;62.94;98433.28;1088454;46;19965;-78
2023/04/01 01:28:47;;;;;;;;;;;;;;;10.47;63.07;98438.63;1088595;46;19958;-78
2023/04/01 01:52:10;;;;;;;;;;;;;;;10.51;62.07;98426.56;1087017;54;19942;-79
2023/04/01 02:01:01;;;;;;;;;;;;;;;10.53;61.82;98425.34;1086823;54;19975;-79
2023/04/01 02:02:07;;;;;;;;;;;;;;;10.54;61.46;98410.97;1088674;39;20298;-79
2023/04/01 02:03:13;;;;;;;;;;;;;;;10.55;61.39;98419.84;1086207;54;19943;-79
2023/04/01 02:04:14;;;;;;;;;;;;;;;10.54;61.26;98415.50;1086454;54;19951;-80
2023/04/01 02:05:21;;;;;;;;;;;;;;;10.55;60.94;98418.00;1086756;54;19963;-79
2023/04/01 02:06:24;;;;;;;;;;;;;;;10.56;61.27;98413.50;1086925;54;19935;-80
2023/04/01 02:07:30;;;;;;;;;;;;;;;10.51;61.31;98416.72;1086994;54;19938;-79
2023/04/01 02:08:35;;;;;;;;;;;;;;;10.56;61.56;98418.84;1086870;54;19938;-80
2023/04/01 02:09:52;;;;;;;;;;;;;;;10.55;61.36;98422.50;1086931;46;19942;-79
2023/04/01 02:11:28;;;;;;;;;;;;;;;10.52;62.15;98420.19;1086653;54;19943;-79
2023/04/01 02:12:34;;;;;;;;;;;;;;;10.46;62.33;98421.75;1086646;54;19939;-79
2023/04/01 02:14:01;;;;;;;;;;;;;;;10.50;62.26;98420.41;1086537;54;19951;-78
2023/04/01 02:18:28;;;;;;;;;;;;;;;10.40;63.28;98414.50;1086597;54;20011;-79
2023/04/01 02:26:01;;;;;;;;;;;;;;;10.30;63.03;98409.38;1086593;54;19942;-79
2023/04/01 02:27:22;;;;;;;;;;;;;;;10.28;62.83;98406.91;1086458;54;19942;-80
2023/04/01 02:29:00;;;;;;;;;;;;;;;10.28;62.82;98411.44;1086547;47;19994;-79
2023/04/01 02:30:09;;;;;;;;;;;;;;;10.35;63.35;98412.34;1086419;54;19954;-79
2023/04/01 02:31:13;;;;;;;;;;;;;;;10.27;63.06;98405.22;1088234;47;19950;-80
2023/04/01 02:32:15;;;;;;;;;;;;;;;10.29;62.99;98413.91;1086629;54;19950;-79
2023/04/01 02:33:21;;;;;;;;;;;;;;;10.35;63.13;98408.81;1086620;54;20040;-79
2023/04/01 02:34:26;;;;;;;;;;;;;;;10.34;63.21;98405.34;1087142;39;20402;-79
2023/04/01 02:35:30;;;;;;;;;;;;;;;10.36;62.96;98403.31;1086966;54;19943;-80
2023/04/01 02:36:32;;;;;;;;;;;;;;;10.33;62.80;98398.34;1091543;39;20199;-80
2023/04/01 02:37:48;;;;;;;;;;;;;;;10.34;62.69;98400.00;1087296;54;19943;-80
2023/04/01 02:38:49;;;;;;;;;;;;;;;10.41;62.51;98411.63;1087243;54;20052;-80
2023/04/01 02:39:53;;;;;;;;;;;;;;;10.42;62.44;98412.47;1086789;54;19958;-80
2023/04/01 02:40:57;;;;;;;;;;;;;;;10.41;61.57;98411.63;1089096;39;20307;-80
2023/04/01 02:42:02;;;;;;;;;;;;;;;10.39;61.54;98416.31;1087061;54;19939;-80
2023/04/01 02:43:07;;;;;;;;;;;;;;;10.42;61.43;98423.16;1087253;54;19949;-79
2023/04/01 02:44:11;;;;;;;;;;;;;;;10.37;61.29;98418.38;1087040;54;19942;-80
2023/04/01 02:45:14;;;;;;;;;;;;;;;10.42;61.09;98429.31;1087166;54;19927;-81
2023/04/01 02:46:19;;;;;;;;;;;;;;;10.42;61.25;98417.81;1087159;54;19942;-80
2023/04/01 02:47:20;;;;;;;;;;;;;;;10.43;60.98;98419.47;1087127;54;19943;-79
2023/04/01 02:48:31;;;;;;;;;;;;;;;10.48;60.90;98421.59;1087091;54;19943;-79
2023/04/01 02:49:37;;;;;;;;;;;;;;;10.48;60.73;98416.25;1087258;54;19946;-80
2023/04/01 02:50:56;;;;;;;;;;;;;;;10.48;60.60;98416.25;1087206;54;19945;-80
2023/04/01 02:51:58;;;;;;;;;;;;;;;10.45;61.09;98420.94;1087222;54;19951;-80
2023/04/01 02:53:06;;;;;;;;;;;;;;;10.47;60.51;98430.63;1087083;54;19943;-80
2023/04/01 02:54:13;;;;;;;;;;;;;;;10.49;60.68;98418.72;1087263;54;19943;-79
2023/04/01 02:55:21;;;;;;;;;;;;;;;10.47;61.10;98409.25;1087962;46;19943;-81
2023/04/01 02:56:22;;;;;;;;;;;;;;;10.47;60.81;98409.25;1087335;46;19942;-80
2023/04/01 02:57:30;;;;;;;;;;;;;;;10.47;61.21;98404.72;1087180;54;19950;-80
2023/04/01 02:58:35;;;;;;;;;;;;;;;10.44;61.43;98411.28;1087292;54;19943;-79
2023/04/01 02:59:39;;;;;;;;;;;;;;;10.41;61.68;98410.81;1087353;54;20004;-79
2023/04/01 03:00:41;;;;;;;;;;;;;;;10.41;61.51;98406.28;1087174;54;19950;-80
2023/04/01 03:03:03;;;;;;;;;;;;;;;10.50;61.76;98409.72;1087358;54;19942;-80
2023/04/01 03:04:05;;;;;;;;;;;;;;;10.45;61.69;98404.06;1087176;54;19942;-80
2023/04/01 03:05:12;;;;;;;;;;;;;;;10.37;61.75;98409.47;1087206;54;19974;-80
2023/04/01 03:06:15;;;;;;;;;;;;;;;10.44;61.75;98411.28;1087731;54;19961;-79
2023/04/01 03:07:18;;;;;;;;;;;;;;;10.40;61.29;98403.81;1088436;46;19949;-79
2023/04/01 03:08:20;;;;;;;;;;;;;;;10.35;60.90;98420.34;1087684;54;19945;-79
2023/04/01 03:09:25;;;;;;;;;;;;;;;10.35;61.12;98411.50;1087739;54;20261;-80
2023/04/01 03:10:26;;;;;;;;;;;;;;;10.33;60.93;98419.69;1087711;54;19942;-80
2023/04/01 03:11:30;;;;;;;;;;;;;;;10.38;60.93;98422.69;1087994;46;19939;-81
2023/04/01 03:12:39;;;;;;;;;;;;;;;10.38;61.01;98422.69;1087714;54;19950;-80
2023/04/01 03:13:50;;;;;;;;;;;;;;;10.43;61.02;98414.13;1087548;47;19949;-79
2023/04/01 03:15:00;;;;;;;;;;;;;;;10.42;60.94;98415.97;1087887;54;19950;-79
2023/04/01 03:16:25;;;;;;;;;;;;;;;10.39;61.35;98419.00;1087770;54;19965;-82
2023/04/01 03:17:27;;;;;;;;;;;;;;;10.36;60.89;98416.69;1087670;54;19939;-79
2023/04/01 03:18:32;;;;;;;;;;;;;;;10.39;60.94;98418.19;1087768;54;19949;-81
2023/04/01 03:19:37;;;;;;;;;;;;;;;10.36;61.15;98414.00;1087979;46;19943;-81
2023/04/01 03:20:44;;;;;;;;;;;;;;;10.29;61.06;98421.91;1088442;46;19942;-80
2023/04/01 03:21:54;;;;;;;;;;;;;;;10.29;61.41;98427.25;1087742;54;19949;-80
2023/04/01 03:24:33;;;;;;;;;;;;;;;;;;;;;
2023/04/01 03:29:20;;;;;;;;;;;;;;;;;;;;;
2023/04/01 03:33:55;;;;;;;;;;;;;;;10.28;61.21;98425.59;1088417;46;19943;-80
2023/04/01 03:34:57;;;;;;;;;;;;;;;10.27;60.91;98425.78;1087695;54;19942;-80
2023/04/01 03:36:06;;;;;;;;;;;;;;;10.21;61.07;98429.16;1087616;54;20010;-80
2023/04/01 03:38:50;;;;;;;;;;;;;;;10.20;61.11;98432.88;1087803;54;20042;-80
2023/04/01 03:39:52;;;;;;;;;;;;;;;10.19;60.85;98434.69;1087791;47;19995;-81
2023/04/01 03:41:02;;;;;;;;;;;;;;;10.20;60.93;98435.53;1087698;54;19942;-80
2023/04/01 03:42:17;;;;;;;;;;;;;;;10.24;61.01;98431.47;1087793;54;19950;-80
2023/04/01 03:43:22;;;;;;;;;;;;;;;10.21;60.84;98442.50;1087784;54;20030;-81
2023/04/01 03:44:26;;;;;;;;;;;;;;;10.25;60.39;98443.81;1087711;54;19973;-79
2023/04/01 03:45:36;;;;;;;;;;;;;;;10.19;60.82;98444.56;1088102;46;19943;-80
2023/04/01 03:46:37;;;;;;;;;;;;;;;10.19;60.81;98442.72;1087604;54;19962;-80
2023/04/01 03:47:41;;;;;;;;;;;;;;;10.21;60.80;98440.69;1087797;54;19946;-80
2023/04/01 03:48:48;;;;;;;;;;;;;;;10.21;60.78;98447.84;1089256;46;19999;-79
2023/04/01 03:49:52;;;;;;;;;;;;;;;10.25;60.45;98438.47;1087683;54;19989;-79
2023/04/01 03:50:53;;;;;;;;;;;;;;;10.18;60.79;98442.91;1087756;54;19950;-79
2023/04/01 03:51:59;;;;;;;;;;;;;;;10.18;60.85;98449.06;1087895;54;19989;-79
2023/04/01 03:53:00;;;;;;;;;;;;;;;10.20;60.53;98432.88;1087857;54;19951;-79
2023/04/01 03:54:04;;;;;;;;;;;;;;;10.22;60.65;98446.84;1088004;46;19943;-80
2023/04/01 03:55:08;;;;;;;;;;;;;;;10.22;60.83;98445.03;1087860;54;19943;-79
2023/04/01 03:56:13;;;;;;;;;;;;;;;10.25;61.02;98441.97;1087758;54;19953;-80
2023/04/01 04:07:09;;;;;;;;;;;;;;;10.27;61.29;98420.44;1087320;54;19938;-80
2023/04/01 04:08:11;;;;;;;;;;;;;;;10.34;61.27;98424.03;1087539;54;19943;-80
2023/04/01 04:09:16;;;;;;;;;;;;;;;10.37;61.01;98433.53;1087460;54;19949;-81
2023/04/01 04:10:18;;;;;;;;;;;;;;;10.37;61.21;98423.72;1087535;54;19938;-80
2023/04/01 04:11:22;;;;;;;;;;;;;;;10.33;61.29;98422.38;1087536;54;19942;-79
2023/04/01 04:12:41;;;;;;;;;;;;;;;10.32;61.55;98425.25;1087546;54;19939;-80
2023/04/01 04:13:47;;;;;;;;;;;;;;;10.32;61.30;98428.72;1088474;46;20010;-80
2023/04/01 04:14:49;;;;;;;;;;;;;;;10.23;61.60;98425.31;1087945;46;19958;-80
2023/04/01 04:15:53;;;;;;;;;;;;;;;10.30;61.38;98425.41;1088418;46;19942;-79
2023/04/01 04:16:54;;;;;;;;;;;;;;;10.27;61.78;98431.94;1087559;54;19943;-79
2023/04/01 04:17:58;;;;;;;;;;;;;;;10.23;61.87;98436.00;1088404;46;19942;-79
2023/04/01 04:18:59;;;;;;;;;;;;;;;10.18;62.03;98430.38;1088300;46;19970;-80
2023/04/01 04:20:04;;;;;;;;;;;;;;;10.23;62.25;98421.81;1087564;54;19942;-79
2023/04/01 04:21:05;;;;;;;;;;;;;;;10.23;62.25;98429.81;1087281;54;19938;-80
2023/04/01 04:22:12;;;;;;;;;;;;;;;10.20;62.30;98427.53;1087629;54;19978;-80
2023/04/01 04:23:14;;;;;;;;;;;;;;;10.22;62.05;98426.34;1087573;54;19962;-80
2023/04/01 04:24:18;;;;;;;;;;;;;;;10.20;62.00;98436.34;1088933;46;20819;-80
2023/04/01 04:25:20;;;;;;;;;;;;;;;10.26;62.37;98429.47;1087597;54;19957;-81
2023/04/01 04:26:24;;;;;;;;;;;;;;;10.19;62.50;98434.69;1087520;54;19943;-80
2023/04/01 04:27:25;;;;;;;;;;;;;;;10.23;62.46;98421.81;1087574;54;19942;-79
2023/04/01 04:28:29;;;;;;;;;;;;;;;10.23;62.28;98424.47;1087562;54;19945;-80
2023/04/01 04:29:30;;;;;;;;;;;;;;;10.14;62.58;98426.41;1088237;46;19966;-80
2023/04/01 04:30:34;;;;;;;;;;;;;;;10.16;62.73;98435.06;1087449;54;20282;-80
2023/04/01 04:31:36;;;;;;;;;;;;;;;10.24;62.48;98427.00;1087657;54;19943;-80
2023/04/01 04:32:41;;;;;;;;;;;;;;;10.19;62.80;98417.84;1087553;54;20045;-81
2023/04/01 04:33:42;;;;;;;;;;;;;;;10.19;62.96;98423.19;1087570;54;19942;-81
2023/04/01 04:34:46;;;;;;;;;;;;;;;10.18;62.94;98426.88;1087840;46;19943;-80
2023/04/01 04:35:49;;;;;;;;;;;;;;;10.20;62.91;98420.34;1087528;54;19943;-80
2023/04/01 04:36:54;;;;;;;;;;;;;;;10.14;62.62;98426.41;1089837;46;19943;-80
2023/04/01 04:37:59;;;;;;;;;;;;;;;10.25;62.53;98414.44;1087517;54;19942;-79
2023/04/01 04:39:04;;;;;;;;;;;;;;;10.19;62.49;98417.84;1087258;54;19969;-79
2023/04/01 04:40:06;;;;;;;;;;;;;;;10.25;62.75;98417.94;1087509;54;19941;-79
2023/04/01 04:41:11;;;;;;;;;;;;;;;10.18;62.51;98424.22;1087409;46;19949;-80
2023/04/01 04:42:12;;;;;;;;;;;;;;;10.18;62.85;98433.03;1087442;54;19949;-79
2023/04/01 04:43:17;;;;;;;;;;;;;;;10.19;62.77;98424.00;1087363;54;19949;-79
2023/04/01 04:44:21;;;;;;;;;;;;;;;10.12;62.58;98423.91;1088219;46;19942;-80
2023/04/01 04:45:22;;;;;;;;;;;;;;;10.19;62.79;98415.19;1087478;54;19943;-80
2023/04/01 04:46:26;;;;;;;;;;;;;;;10.16;62.45;98427.03;1087449;54;19989;-79
2023/04/01 04:47:27;;;;;;;;;;;;;;;10.25;62.39;98427.81;1087330;54;19942;-80
2023/04/01 04:48:31;;;;;;;;;;;;;;;10.21;62.42;98415.81;1088251;46;19958;-80
2023/04/01 04:49:33;;;;;;;;;;;;;;;10.19;62.37;98424.00;1087519;46;19961;-80
2023/04/01 04:50:37;;;;;;;;;;;;;;;10.20;62.41;98422.19;1087269;54;20022;-79
2023/04/01 04:51:41;;;;;;;;;;;;;;;10.22;62.65;98428.16;1087963;46;19950;-79
2023/04/01 04:52:42;;;;;;;;;;;;;;;10.27;62.43;98420.44;1087524;46;19946;-80
2023/04/01 04:53:49;;;;;;;;;;;;;;;10.30;62.41;98420.91;1088101;46;19946;-79
2023/04/01 04:54:50;;;;;;;;;;;;;;;10.38;62.28;98420.03;1087186;54;19950;-79
2023/04/01 04:55:54;;;;;;;;;;;;;;;10.29;62.36;98423.78;1087386;46;19962;-79
2023/04/01 04:56:55;;;;;;;;;;;;;;;10.27;62.35;98425.78;1087348;54;19945;-79
2023/04/01 04:57:58;;;;;;;;;;;;;;;10.32;62.47;98417.22;1087146;54;19939;-79
2023/04/01 04:59:00;;;;;;;;;;;;;;;10.25;62.45;98427.81;1087182;54;19945;-79
2023/04/01 05:00:04;;;;;;;;;;;;;;;10.25;62.32;98422.47;1087362;54;20273;-79
2023/04/01 05:01:05;;;;;;;;;;;;;;;10.24;62.78;98421.66;1088342;46;19971;-78
2023/04/01 05:02:09;;;;;;;;;;;;;;;10.29;62.84;98427.25;1087571;46;19973;-78
2023/04/01 05:03:11;;;;;;;;;;;;;;;10.25;62.54;98423.28;1088564;46;19949;-78
2023/04/01 05:04:15;;;;;;;;;;;;;;;10.23;62.70;98413.78;1090189;39;20172;-79
2023/04/01 05:05:16;;;;;;;;;;;;;;;10.24;62.74;98428.81;1087785;46;19938;-78
2023/04/01 05:06:20;;;;;;;;;;;;;;;10.25;62.63;98417.13;1088017;46;19939;-79
2023/04/01 05:07:21;;;;;;;;;;;;;;;10.25;62.73;98409.09;1087240;47;19954;-79
2023/04/01 05:08:25;;;;;;;;;;;;;;;10.27;62.69;98404.41;1088384;46;19949;-79
2023/04/01 05:09:29;;;;;;;;;;;;;;;10.30;62.74;98420.06;1087342;54;19939;-79
2023/04/01 05:12:35;;;;;;;;;;;;;;;;;;;;;
2023/04/01 05:13:43;;;;;;;;;;;;;;;10.20;62.95;98416.84;1087527;54;19938;-80
2023/04/01 05:14:45;;;;;;;;;;;;;;;10.23;62.92;98413.78;1087340;54;19966;-79
2023/04/01 05:15:52;;;;;;;;;;;;;;;10.28;63.00;98412.25;1087809;46;19942;-80
2023/04/01 05:16:54;;;;;;;;;;;;;;;10.19;62.89;98410.66;1087107;54;19994;-79
2023/04/01 05:17:58;;;;;;;;;;;;;;;10.21;62.81;98405.13;1087166;54;19951;-79
2023/04/01 05:19:00;;;;;;;;;;;;;;;10.23;62.93;98411.97;1087317;54;19942;-79
2023/04/01 05:20:04;;;;;;;;;;;;;;;10.12;62.68;98405.22;1087374;54;19965;-80
2023/04/01 05:21:07;;;;;;;;;;;;;;;10.22;62.83;98410.31;1087021;54;19972;-79
2023/04/01 05:22:11;;;;;;;;;;;;;;;10.22;62.94;98406.78;1086830;54;19947;-82
2023/04/01 05:23:12;;;;;;;;;;;;;;;10.19;62.59;98415.19;1086992;54;19943;-80
2023/04/01 05:24:16;;;;;;;;;;;;;;;10.18;62.83;98406.34;1086725;54;20022;-80
2023/04/01 05:25:28;;;;;;;;;;;;;;;10.17;62.24;98409.19;1086576;54;19959;-79
2023/04/01 05:26:33;;;;;;;;;;;;;;;10.15;61.60;98402.19;1087654;46;19974;-80
2023/04/01 05:27:34;;;;;;;;;;;;;;;10.23;61.81;98397.78;1087607;54;19942;-79
2023/04/01 05:28:42;;;;;;;;;;;;;;;10.19;61.10;98393.81;1087616;54;19950;-79
2023/04/01 05:29:43;;;;;;;;;;;;;;;10.27;61.16;98391.06;1089404;46;19973;-78
2023/04/01 05:30:47;;;;;;;;;;;;;;;10.33;60.85;98406.34;1087542;54;19954;-78
2023/04/01 05:31:49;;;;;;;;;;;;;;;10.37;60.99;98404.13;1087360;54;19991;-79
2023/04/01 05:32:52;;;;;;;;;;;;;;;10.33;60.99;98403.69;1087237;54;19958;-79
2023/04/01 05:33:55;;;;;;;;;;;;;;;10.32;60.85;98401.19;1087144;54;19973;-79
2023/04/01 05:34:59;;;;;;;;;;;;;;;10.34;61.01;98394.66;1087174;54;19943;-78
2023/04/01 05:36:10;;;;;;;;;;;;;;;10.39;60.66;98396.81;1087199;54;19951;-79
2023/04/01 05:37:16;;;;;;;;;;;;;;;10.39;60.69;98397.63;1087451;54;19942;-81
2023/04/01 05:38:17;;;;;;;;;;;;;;;10.35;60.71;98393.66;1087381;54;19942;-80
2023/04/01 05:39:23;;;;;;;;;;;;;;;10.34;60.70;98394.66;1087411;54;19942;-79
2023/04/01 05:40:27;;;;;;;;;;;;;;;10.35;60.63;98393.66;1087377;54;19954;-79
2023/04/01 05:41:32;;;;;;;;;;;;;;;10.45;60.67;98385.38;1087519;46;19950;-79
2023/04/01 05:42:33;;;;;;;;;;;;;;;10.42;60.37;98394.59;1087310;54;19950;-80
2023/04/01 05:43:38;;;;;;;;;;;;;;;10.47;60.10;98382.53;1087057;54;20833;-80
2023/04/01 05:44:39;;;;;;;;;;;;;;;10.40;59.86;98385.94;1086717;54;20457;-79
2023/04/01 05:45:43;;;;;;;;;;;;;;;10.45;59.90;98385.38;1086732;54;19957;-80
2023/04/01 05:46:44;;;;;;;;;;;;;;;10.45;59.91;98388.88;1086770;54;19943;-80
2023/04/01 05:47:48;;;;;;;;;;;;;;;10.47;59.78;98382.53;1087075;54;19957;-79
2023/04/01 05:48:49;;;;;;;;;;;;;;;10.50;59.79;98384.81;1086957;54;19957;-80
2023/04/01 05:49:53;;;;;;;;;;;;;;;10.45;59.82;98396.91;1086979;54;20026;-80
2023/04/01 05:50:54;;;;;;;;;;;;;;;10.47;60.16;98393.22;1086982;54;19949;-81
2023/04/01 05:51:58;;;;;;;;;;;;;;;10.57;59.74;98386.56;1087044;54;20971;-79
2023/04/01 05:52:59;;;;;;;;;;;;;;;10.56;59.97;98389.44;1086983;54;19950;-79
2023/04/01 05:54:05;;;;;;;;;;;;;;;10.46;60.05;98387.03;1087315;46;19949;-80
2023/04/01 05:55:37;;;;;;;;;;;;;;;10.50;60.28;98395.50;1087798;46;19951;-79
2023/04/01 05:56:42;;;;;;;;;;;;;;;10.55;59.59;98393.13;1087361;54;20322;-80
2023/04/01 05:57:48;;;;;;;;;;;;;;;10.52;59.93;98390.81;1087422;54;19954;-80
2023/04/01 05:58:51;;;;;;;;;;;;;;;10.58;59.57;98384.75;1087213;54;20528;-80
2023/04/01 05:59:55;;;;;;;;;;;;;;;10.54;59.71;98384.25;1087209;54;20543;-80
2023/04/01 06:01:00;;;;;;;;;;;;;;;10.52;59.72;98385.47;1088553;39;20547;-80
2023/04/01 06:02:05;;;;;;;;;;;;;;;10.56;59.37;98386.78;1087271;54;19943;-80
2023/04/01 06:03:06;;;;;;;;;;;;;;;10.61;59.41;98381.69;1087378;54;19951;-80
2023/04/01 06:04:15;;;;;;;;;;;;;;;10.55;59.58;98391.28;1087253;54;19942;-79
2023/04/01 06:05:37;;;;;;;;;;;;;;;10.58;59.59;98387.41;1086389;54;19950;-79
2023/04/01 06:06:42;;;;;;;;;;;;;;;10.66;59.59;98381.97;1087179;54;20017;-79
2023/04/01 06:07:43;;;;;;;;;;;;;;;10.70;59.29;98385.91;1087375;54;19990;-81
2023/04/01 06:08:47;;;;;;;;;;;;;;;10.73;59.30;98384.72;1087259;54;19946;-80
2023/04/01 06:09:49;;;;;;;;;;;;;;;10.61;59.71;98384.34;1087279;54;19943;-79
2023/04/01 06:10:59;;;;;;;;;;;;;;;10.70;59.66;98383.25;1087785;47;19947;-80
2023/04/01 06:12:21;;;;;;;;;;;;;;;10.69;59.70;98386.94;1087329;54;19958;-78
2023/04/01 06:15:16;;;;;;;;;;;;;;;10.62;59.99;98386.00;1086959;54;20032;-78
2023/04/01 06:16:21;;;;;;;;;;;;;;;10.69;60.12;98383.44;1087009;54;19963;-78
2023/04/01 06:17:29;;;;;;;;;;;;;;;10.53;60.03;98392.47;1087149;54;19939;-78
2023/04/01 06:29:29;;;;;;;;;;;;;;;10.48;61.44;98405.56;1087025;54;19954;-79
2023/04/01 06:30:38;;;;;;;;;;;;;;;10.41;61.86;98403.63;1087085;54;19958;-80
2023/04/01 06:33:17;;;;;;;;;;;;;;;10.42;61.50;98402.59;1086790;54;19942;-81
2023/04/01 06:34:25;;;;;;;;;;;;;;;10.42;61.68;98402.59;1087097;54;19946;-80
2023/04/01 06:35:42;;;;;;;;;;;;;;;10.33;61.80;98398.34;1087139;54;19949;-79
2023/04/01 06:36:52;;;;;;;;;;;;;;;10.34;61.67;98393.84;1087162;54;19950;-80
2023/04/01 06:38:09;;;;;;;;;;;;;;;10.35;61.49;98398.13;1087255;54;19946;-80
2023/04/01 06:39:26;;;;;;;;;;;;;;;10.43;61.67;98401.59;1087383;54;19942;-80
2023/04/01 06:44:16;;;;;;;;;;;;;;;;;;;;;
2023/04/01 06:46:03;;;;;;;;;;;;;;;10.50;61.41;98406.19;1087526;54;19938;-79
2023/04/01 06:50:34;;;;;;;;;;;;;;;10.42;61.19;98402.59;1087350;54;20017;-79
2023/04/01 06:51:43;;;;;;;;;;;;;;;10.42;61.19;98399.94;1087132;54;19934;-80
2023/04/01 06:52:53;;;;;;;;;;;;;;;10.37;61.52;98399.66;1086905;54;19943;-78
2023/04/01 06:54:03;;;;;;;;;;;;;;;10.38;61.56;98408.50;1086723;54;19942;-79
2023/04/01 06:55:18;;;;;;;;;;;;;;;10.41;61.68;98395.59;1086646;54;19943;-78
2023/04/01 06:56:21;;;;;;;;;;;;;;;10.37;61.75;98396.13;1087877;39;20500;-78
2023/04/01 06:57:32;;;;;;;;;;;;;;;10.32;61.88;98404.69;1086847;47;19950;-79
2023/04/01 06:58:35;;;;;;;;;;;;;;;10.34;61.98;98400.00;1086826;54;19943;-80
2023/04/01 07:01:24;;;;;;;;;;;;;;;10.42;62.24;98407.94;1086728;54;20030;-78
2023/04/01 07:02:45;;;;;;;;;;;;;;;10.37;62.15;98405.00;1086740;54;19943;-80
2023/04/01 07:03:57;;;;;;;;;;;;;;;10.36;62.25;98400.66;1087125;47;19949;-80
2023/04/01 07:05:10;;;;;;;;;;;;;;;10.41;62.27;98405.47;1086906;54;19943;-79
2023/04/01 07:06:20;;;;;;;;;;;;;;;10.47;62.02;98410.06;1086604;54;19949;-79
2023/04/01 07:07:30;;;;;;;;;;;;;;;10.41;62.47;98411.63;1086390;54;20040;-79
2023/04/01 07:08:34;;;;;;;;;;;;;;;10.32;62.68;98406.53;1086628;54;19946;-78
2023/04/01 07:09:40;;;;;;;;;;;;;;;10.33;62.69;98409.03;1086602;54;20047;-80
2023/04/01 07:10:43;;;;;;;;;;;;;;;10.34;62.79;98400.00;1086808;54;19949;-80
2023/04/01 07:11:49;;;;;;;;;;;;;;;10.33;62.99;98409.03;1086739;54;19955;-80
2023/04/01 07:13:14;;;;;;;;;;;;;;;10.41;62.98;98414.31;1086793;54;20030;-80
2023/04/01 07:14:22;;;;;;;;;;;;;;;10.45;62.63;98402.25;1086788;54;19942;-80
2023/04/01 07:15:25;;;;;;;;;;;;;;;10.35;63.07;98396.31;1086622;54;19976;-80